Kim King — WDG5328 — position and weather

sailwx.info

Track history (hours):
 
Tides and Currents Weather Stations Pressure Air Temp Water Temp Dewpoint Dewpoint Depression Visibility Wind Speed Wind Dir Waves Ship Positions

Kim King

Owner: Terral RiverService, Inc., Lake Providence, LA. More information available from US FCC via Universal Licensing System and Coast Guard Vessel Documentation Center.

Last reported at 2018-Feb-25 00:59 UTC. Time now 2018-Feb-25 13:31 UTC.
Position N 32°45' W 091°10'.

; draft 6 m.

Type: Towing. MMSI: 367545540.

Date/timePositionNaut miles runAvg speedWind from/ knotsBaromVisibWave heightAir tempDewpointWater temp
2018-Feb-25 00:59N 32°45' W 091°10'0 0.9
2018-Feb-25 00:29N 32°45' W 091°09'0 0.1
2018-Feb-25 00:00N 32°45' W 091°09'5 0.1
2018-Feb-22 21:52N 32°40' W 091°08'3 4.2
2018-Feb-22 21:10N 32°37' W 091°09'1 4.0
2018-Feb-22 20:59N 32°37' W 091°09'2 3.8
2018-Feb-22 20:30N 32°35' W 091°07'2 3.8
2018-Feb-22 20:00N 32°34' W 091°06'2 4.4
2018-Feb-22 19:28N 32°31' W 091°06'2 4.5
2018-Feb-22 19:00N 32°29' W 091°07'610.4
2018-Feb-22 18:29N 32°35' W 091°07'  
2018-Feb-18 17:33N 32°45' W 091°10'0 0.0
2018-Feb-18 17:22N 32°45' W 091°10'0 0.0
2018-Feb-17 13:57N 32°45' W 091°10'0 0.0
2018-Feb-16 11:29N 32°45' W 091°10'0 0.0
2018-Feb-16 10:59N 32°45' W 091°10'0 0.0
2018-Feb-16 10:30N 32°45' W 091°10'1 0.4
2018-Feb-16 08:14N 32°45' W 091°10'1 0.8
2018-Feb-16 07:06N 32°45' W 091°10'0 0.1
2018-Feb-16 06:56N 32°45' W 091°10'1 0.0
2018-Feb-15 11:49N 32°45' W 091°10'1 0.2
2018-Feb-15 08:39N 32°45' W 091°10'0 0.0
2018-Feb-15 08:25N 32°45' W 091°10'0 0.0
2018-Feb-15 07:53N 32°45' W 091°10'0 0.0
2018-Feb-15 07:30N 32°45' W 091°10'0 0.0
2018-Feb-15 07:00N 32°45' W 091°10'0 0.0
2018-Feb-15 06:30N 32°45' W 091°10'0 0.0
2018-Feb-15 05:59N 32°45' W 091°10'0 0.0
2018-Feb-15 05:28N 32°45' W 091°10'0 0.0
2018-Feb-15 04:59N 32°45' W 091°10'0 0.0
2018-Feb-15 04:28N 32°45' W 091°10'  
Track history (hours):
 
Tides and Currents Weather Stations Pressure Air Temp Water Temp Dewpoint Dewpoint Depression Visibility Wind Speed Wind Dir Waves Ship Positions

Kim King

Owner: Terral RiverService, Inc., Lake Providence, LA. More information available from US FCC via Universal Licensing System and Coast Guard Vessel Documentation Center.

Last reported at 2018-Feb-25 00:59 UTC. Time now 2018-Feb-25 13:31 UTC.
Position N 32°45' W 091°10'.

; draft 6 m.

Type: Towing. MMSI: 367545540.

Date/timePositionNaut miles runAvg speedWind from/ knotsBaromVisibWave heightAir tempDewpointWater temp
2018-Feb-25 00:59N 32°45' W 091°10'0 0.9
2018-Feb-25 00:29N 32°45' W 091°09'0 0.1
2018-Feb-25 00:00N 32°45' W 091°09'5 0.1
2018-Feb-22 21:52N 32°40' W 091°08'3 4.2
2018-Feb-22 21:10N 32°37' W 091°09'1 4.0
2018-Feb-22 20:59N 32°37' W 091°09'2 3.8
2018-Feb-22 20:30N 32°35' W 091°07'2 3.8
2018-Feb-22 20:00N 32°34' W 091°06'2 4.4
2018-Feb-22 19:28N 32°31' W 091°06'2 4.5
2018-Feb-22 19:00N 32°29' W 091°07'610.4
2018-Feb-22 18:29N 32°35' W 091°07'  
2018-Feb-18 17:33N 32°45' W 091°10'0 0.0
2018-Feb-18 17:22N 32°45' W 091°10'0 0.0
2018-Feb-17 13:57N 32°45' W 091°10'0 0.0
2018-Feb-16 11:29N 32°45' W 091°10'0 0.0
2018-Feb-16 10:59N 32°45' W 091°10'0 0.0
2018-Feb-16 10:30N 32°45' W 091°10'1 0.4
2018-Feb-16 08:14N 32°45' W 091°10'1 0.8
2018-Feb-16 07:06N 32°45' W 091°10'0 0.1
2018-Feb-16 06:56N 32°45' W 091°10'1 0.0
2018-Feb-15 11:49N 32°45' W 091°10'1 0.2
2018-Feb-15 08:39N 32°45' W 091°10'0 0.0
2018-Feb-15 08:25N 32°45' W 091°10'0 0.0
2018-Feb-15 07:53N 32°45' W 091°10'0 0.0
2018-Feb-15 07:30N 32°45' W 091°10'0 0.0
2018-Feb-15 07:00N 32°45' W 091°10'0 0.0
2018-Feb-15 06:30N 32°45' W 091°10'0 0.0
2018-Feb-15 05:59N 32°45' W 091°10'0 0.0
2018-Feb-15 05:28N 32°45' W 091°10'0 0.0
2018-Feb-15 04:59N 32°45' W 091°10'0 0.0
2018-Feb-15 04:28N 32°45' W 091°10'  

Dump ship's entire track history